createdAt,value
2022-11-15T00:00:40.232Z,14.10
2022-11-15T00:03:44.407Z,14.00
2022-11-15T00:06:48.907Z,14.00
2022-11-15T00:09:53.593Z,14.00
2022-11-15T00:12:58.154Z,14.00
2022-11-15T00:16:03.557Z,14.00
2022-11-15T00:19:07.892Z,14.00
2022-11-15T00:22:12.399Z,14.00
2022-11-15T00:25:16.983Z,14.10
2022-11-15T00:28:21.563Z,14.10
2022-11-15T00:31:26.005Z,14.10
2022-11-15T00:34:30.480Z,14.10
2022-11-15T00:37:34.868Z,14.10
2022-11-15T00:40:39.310Z,14.10
2022-11-15T00:43:44.697Z,14.20
2022-11-15T00:46:49.185Z,14.10
2022-11-15T00:49:53.519Z,14.10
2022-11-15T00:52:57.763Z,14.00
2022-11-15T00:56:02.278Z,14.20
2022-11-15T00:59:06.778Z,14.20
2022-11-15T01:02:11.215Z,14.10
2022-11-15T01:05:15.851Z,14.10
2022-11-15T01:08:20.272Z,14.10
2022-11-15T01:11:24.549Z,14.10
2022-11-15T01:14:29.134Z,14.20
2022-11-15T01:17:33.713Z,14.20
2022-11-15T01:20:44.579Z,14.20
2022-11-15T01:23:49.170Z,14.20
2022-11-15T01:26:53.512Z,14.30
2022-11-15T01:29:57.680Z,14.30
2022-11-15T01:33:02.200Z,14.30
2022-11-15T01:36:08.610Z,14.30
2022-11-15T01:39:12.804Z,14.30
2022-11-15T01:42:19.017Z,14.40
2022-11-15T01:45:23.493Z,14.40
2022-11-15T01:48:35.078Z,14.40
2022-11-15T01:51:39.913Z,14.40
2022-11-15T01:54:44.748Z,14.40
2022-11-15T01:57:54.698Z,14.40
2022-11-15T02:00:58.800Z,14.40
2022-11-15T02:04:07.241Z,14.40
2022-11-15T02:07:13.659Z,14.40
2022-11-15T02:10:23.311Z,14.40
2022-11-15T02:13:27.221Z,14.40
2022-11-15T02:16:59.710Z,14.40
2022-11-15T02:20:13.034Z,14.40
2022-11-15T02:23:32.627Z,14.40
2022-11-15T02:27:06.722Z,14.40
2022-11-15T02:30:30.634Z,14.40
2022-11-15T02:33:49.169Z,14.30
2022-11-15T02:37:15.219Z,14.30
2022-11-15T02:40:34.951Z,14.30
2022-11-15T02:43:58.910Z,14.30
2022-11-15T02:47:16.144Z,14.30
2022-11-15T02:50:23.230Z,14.30
2022-11-15T02:53:28.426Z,14.40
2022-11-15T02:56:32.956Z,14.40
2022-11-15T02:59:45.887Z,14.40
2022-11-15T03:02:59.968Z,14.40
2022-11-15T03:06:35.922Z,14.40
2022-11-15T03:10:11.428Z,14.40
2022-11-15T03:13:49.827Z,14.40
2022-11-15T03:17:17.114Z,14.40
2022-11-15T03:20:21.378Z,14.40
2022-11-15T03:23:27.306Z,14.40
2022-11-15T03:26:35.486Z,14.40
2022-11-15T03:29:51.573Z,14.40
2022-11-15T03:32:58.835Z,14.40
2022-11-15T03:36:03.671Z,14.30
2022-11-15T03:39:09.581Z,14.30
2022-11-15T03:42:34.797Z,14.30
2022-11-15T03:45:47.739Z,14.30
2022-11-15T03:48:57.763Z,14.30
2022-11-15T03:52:04.814Z,14.30
2022-11-15T03:55:14.094Z,14.40
2022-11-15T03:58:18.566Z,14.30
2022-11-15T04:01:23.137Z,14.40
2022-11-15T04:04:27.616Z,14.40
2022-11-15T04:07:32.321Z,14.40
2022-11-15T04:10:36.873Z,14.40
2022-11-15T04:13:41.099Z,14.40
2022-11-15T04:16:45.681Z,14.40
2022-11-15T04:20:08.506Z,14.40
2022-11-15T04:23:33.205Z,14.40
2022-11-15T04:26:37.926Z,14.40
2022-11-15T04:29:42.993Z,14.40
2022-11-15T04:32:47.323Z,14.40
2022-11-15T04:36:10.848Z,14.40
2022-11-15T04:39:15.082Z,14.30
2022-11-15T04:42:19.419Z,14.40
2022-11-15T04:45:24.178Z,14.40
2022-11-15T04:48:28.454Z,15.20
2022-11-15T04:51:32.818Z,14.40
2022-11-15T04:54:37.250Z,14.40
2022-11-15T04:57:41.653Z,14.50
2022-11-15T05:00:46.225Z,14.50
2022-11-15T05:04:08.883Z,14.50
2022-11-15T05:07:13.165Z,14.60
2022-11-15T05:10:17.944Z,14.60
2022-11-15T05:13:22.337Z,14.60
2022-11-15T05:16:26.859Z,14.60
2022-11-15T05:19:31.571Z,14.70
2022-11-15T05:22:36.037Z,14.60
2022-11-15T05:25:40.336Z,14.60
2022-11-15T05:28:44.954Z,14.60
2022-11-15T05:31:49.063Z,14.60
2022-11-15T05:34:53.648Z,14.70
2022-11-15T05:37:58.617Z,14.70
2022-11-15T05:41:04.233Z,14.80
2022-11-15T05:44:12.513Z,14.80
2022-11-15T05:47:24.602Z,14.80
2022-11-15T05:50:29.200Z,14.70
2022-11-15T05:53:34.342Z,14.70
2022-11-15T05:56:39.175Z,14.70
2022-11-15T05:59:44.586Z,14.70
2022-11-15T06:02:48.811Z,14.60
2022-11-15T06:05:53.073Z,14.60
2022-11-15T06:08:57.527Z,14.60
2022-11-15T06:12:01.947Z,14.60
2022-11-15T06:15:06.910Z,14.60
2022-11-15T06:18:11.408Z,14.50
2022-11-15T06:21:15.932Z,14.50
2022-11-15T06:24:20.455Z,14.50
2022-11-15T06:27:25.084Z,14.50
2022-11-15T06:30:29.554Z,14.60
2022-11-15T06:33:34.546Z,14.50
2022-11-15T06:36:39.000Z,14.40
2022-11-15T06:39:43.244Z,14.50
2022-11-15T06:42:47.887Z,14.40
2022-11-15T06:45:52.186Z,14.50
2022-11-15T06:48:56.636Z,14.50
2022-11-15T06:52:00.905Z,14.50
2022-11-15T06:55:05.897Z,14.60
2022-11-15T06:58:10.739Z,14.60
2022-11-15T07:01:15.046Z,14.60
2022-11-15T07:04:19.375Z,14.60
2022-11-15T07:07:23.605Z,14.60
2022-11-15T07:10:28.774Z,14.60
2022-11-15T07:13:35.264Z,14.70
2022-11-15T07:16:40.577Z,14.70
2022-11-15T07:19:44.844Z,14.70
2022-11-15T07:22:49.291Z,14.80
2022-11-15T07:25:53.443Z,14.80
2022-11-15T07:28:57.911Z,14.80
2022-11-15T07:32:02.542Z,14.80
2022-11-15T07:35:07.263Z,14.80
2022-11-15T07:38:11.666Z,14.80
2022-11-15T07:41:15.973Z,14.80
2022-11-15T07:44:20.265Z,14.90
2022-11-15T07:47:24.706Z,14.90
2022-11-15T07:50:30.904Z,14.90
2022-11-15T07:53:35.129Z,14.90
2022-11-15T07:56:40.091Z,14.90
2022-11-15T07:59:44.686Z,14.90
2022-11-15T08:02:49.180Z,15.00
2022-11-15T08:05:53.956Z,14.90
2022-11-15T08:08:58.800Z,15.00
2022-11-15T08:12:02.809Z,15.00
2022-11-15T08:15:07.659Z,15.00
2022-11-15T08:18:14.851Z,15.00
2022-11-15T08:21:21.169Z,15.00
2022-11-15T08:24:25.283Z,15.00
2022-11-15T08:27:29.790Z,15.00
2022-11-15T08:30:42.616Z,15.10
2022-11-15T08:33:47.380Z,15.10
2022-11-15T08:36:51.649Z,16.10
2022-11-15T08:39:55.995Z,15.30
2022-11-15T08:43:03.369Z,15.40
2022-11-15T08:46:12.862Z,15.50
2022-11-15T08:49:17.275Z,15.60
2022-11-15T08:52:21.801Z,15.70
2022-11-15T08:55:26.013Z,15.80
2022-11-15T08:58:30.687Z,15.90
2022-11-15T09:01:35.250Z,16.00
2022-11-15T09:04:42.144Z,16.10
2022-11-15T09:07:46.232Z,16.20
2022-11-15T09:10:50.726Z,16.30
2022-11-15T09:13:55.912Z,16.40
2022-11-15T09:17:00.678Z,16.50
2022-11-15T09:20:06.302Z,16.60
2022-11-15T09:23:11.192Z,16.70
2022-11-15T09:26:15.672Z,16.80
2022-11-15T09:29:22.631Z,16.90
2022-11-15T09:32:35.054Z,17.00
2022-11-15T09:35:43.416Z,17.00
2022-11-15T09:38:48.337Z,17.10
2022-11-15T09:42:26.454Z,17.20
2022-11-15T09:45:58.970Z,17.30
2022-11-15T09:49:03.880Z,17.40
2022-11-15T09:51:52.271Z,17.40
2022-11-15T09:54:56.172Z,17.50
2022-11-15T09:57:45.294Z,17.50
2022-11-15T10:00:46.563Z,17.60
2022-11-15T10:03:42.871Z,17.60
2022-11-15T10:06:28.882Z,17.70
2022-11-15T10:09:50.536Z,17.70
2022-11-15T10:12:36.651Z,17.80
2022-11-15T10:15:23.959Z,17.80
2022-11-15T10:18:20.041Z,17.80
2022-11-15T10:21:47.700Z,17.90
2022-11-15T10:24:41.548Z,17.90
2022-11-15T10:27:26.894Z,17.90
2022-11-15T10:30:15.463Z,18.00
2022-11-15T10:33:26.187Z,18.00
2022-11-15T10:36:16.008Z,18.00
2022-11-15T10:39:01.987Z,18.00
2022-11-15T10:41:47.781Z,18.10
2022-11-15T10:44:44.051Z,18.10
2022-11-15T10:47:38.959Z,18.80
2022-11-15T10:50:32.317Z,18.20
2022-11-15T10:53:37.570Z,18.20
2022-11-15T10:56:26.254Z,18.30
2022-11-15T10:59:20.559Z,18.30
2022-11-15T11:02:30.467Z,18.40
2022-11-15T11:05:41.647Z,18.50
2022-11-15T11:08:29.039Z,18.50
2022-11-15T11:11:14.554Z,18.60
2022-11-15T11:14:13.752Z,18.60
2022-11-15T11:17:18.999Z,18.70
2022-11-15T11:20:24.826Z,18.70
2022-11-15T11:23:42.694Z,18.80
2022-11-15T11:26:40.260Z,18.80
2022-11-15T11:29:51.844Z,18.80
2022-11-15T11:32:53.894Z,18.80
2022-11-15T11:36:00.319Z,18.90
2022-11-15T11:39:12.396Z,18.90
2022-11-15T11:42:16.572Z,18.90
2022-11-15T11:45:23.458Z,18.90
2022-11-15T11:48:22.239Z,18.90
2022-11-15T11:51:37.165Z,18.90
2022-11-15T11:54:38.618Z,19.00
2022-11-15T11:57:44.879Z,19.10
2022-11-15T12:00:35.578Z,19.20
2022-11-15T12:03:45.308Z,19.30
2022-11-15T12:06:41.470Z,19.30
2022-11-15T12:09:36.623Z,19.40
2022-11-15T12:12:45.389Z,19.50
2022-11-15T12:15:42.346Z,19.50
2022-11-15T12:18:30.446Z,19.50
2022-11-15T12:21:33.238Z,19.50
2022-11-15T12:25:02.666Z,19.60
2022-11-15T12:27:55.379Z,19.60
2022-11-15T12:30:44.675Z,19.60
2022-11-15T12:33:38.479Z,19.70
2022-11-15T12:36:24.289Z,19.80
2022-11-15T12:39:12.676Z,19.90
2022-11-15T12:41:58.115Z,19.90
2022-11-15T12:44:43.709Z,20.00
2022-11-15T12:47:29.873Z,20.00
2022-11-15T12:50:16.429Z,20.10
2022-11-15T12:53:26.124Z,20.20
2022-11-15T12:56:18.071Z,20.20
2022-11-15T12:59:03.521Z,20.30
2022-11-15T13:01:58.557Z,20.30
2022-11-15T13:04:50.104Z,20.30
2022-11-15T13:07:41.747Z,20.30
2022-11-15T13:10:28.154Z,20.30
2022-11-15T13:13:44.092Z,20.30
2022-11-15T13:16:30.459Z,20.30
2022-11-15T13:19:16.654Z,20.30
2022-11-15T13:22:28.233Z,20.20
2022-11-15T13:25:33.174Z,20.10
2022-11-15T13:28:22.083Z,20.10
2022-11-15T13:31:29.143Z,20.00
2022-11-15T13:34:49.966Z,19.90
2022-11-15T13:37:33.451Z,19.80
2022-11-15T13:40:31.522Z,19.80
2022-11-15T13:43:37.548Z,19.70
2022-11-15T13:46:24.607Z,19.70
2022-11-15T13:49:14.189Z,19.70
2022-11-15T13:52:05.602Z,19.60
2022-11-15T13:55:19.785Z,19.60
2022-11-15T13:58:09.711Z,19.60
2022-11-15T14:01:05.291Z,19.60
2022-11-15T14:04:01.669Z,19.50
2022-11-15T14:06:52.682Z,19.50
2022-11-15T14:09:40.978Z,19.50
2022-11-15T14:12:34.872Z,19.50
2022-11-15T14:15:36.902Z,19.50
2022-11-15T14:18:45.550Z,19.50
2022-11-15T14:21:31.450Z,19.50
2022-11-15T14:24:22.810Z,19.50
2022-11-15T14:27:41.519Z,19.50
2022-11-15T14:30:27.103Z,19.50
2022-11-15T14:33:38.381Z,19.50
2022-11-15T14:36:24.041Z,19.40
2022-11-15T14:39:10.238Z,19.40
2022-11-15T14:41:56.132Z,19.40
2022-11-15T14:44:45.748Z,19.40
2022-11-15T14:47:31.444Z,19.40
2022-11-15T14:50:19.976Z,19.40
2022-11-15T14:53:06.064Z,19.30
2022-11-15T14:55:51.536Z,19.40
2022-11-15T14:58:37.130Z,19.30
2022-11-15T15:01:27.179Z,19.30
2022-11-15T15:04:13.939Z,19.30
2022-11-15T15:07:01.609Z,19.30
2022-11-15T15:09:47.846Z,19.30
2022-11-15T15:12:34.076Z,19.30
2022-11-15T15:15:25.570Z,19.30
2022-11-15T15:18:12.378Z,19.30
2022-11-15T15:21:08.173Z,19.30
2022-11-15T15:23:57.349Z,19.20
2022-11-15T15:26:44.534Z,19.20
2022-11-15T15:29:30.113Z,19.20
2022-11-15T15:32:15.578Z,19.20
2022-11-15T15:35:01.803Z,19.20
2022-11-15T15:37:49.853Z,19.20
2022-11-15T15:40:35.966Z,19.20
2022-11-15T15:43:21.817Z,19.20
2022-11-15T15:46:16.929Z,19.20
2022-11-15T15:49:02.352Z,19.20
2022-11-15T15:51:47.959Z,19.10
2022-11-15T15:54:33.356Z,19.10
2022-11-15T15:57:19.534Z,19.20
2022-11-15T16:00:06.685Z,19.10
2022-11-15T16:02:58.018Z,19.10
2022-11-15T16:05:44.276Z,19.10
2022-11-15T16:08:42.522Z,19.10
2022-11-15T16:11:33.557Z,19.10
2022-11-15T16:14:19.214Z,19.10
2022-11-15T16:17:05.094Z,19.10
2022-11-15T16:19:50.849Z,19.10
2022-11-15T16:22:36.204Z,19.00
2022-11-15T16:25:21.602Z,19.00
2022-11-15T16:28:18.359Z,19.00
2022-11-15T16:31:11.615Z,19.00
2022-11-15T16:33:57.321Z,19.00
2022-11-15T16:36:42.715Z,19.00
2022-11-15T16:39:30.830Z,19.00
2022-11-15T16:42:16.544Z,19.00
2022-11-15T16:45:02.354Z,19.00
2022-11-15T16:47:47.845Z,19.00
2022-11-15T16:50:41.051Z,19.00
2022-11-15T16:53:28.150Z,19.00
2022-11-15T16:56:29.152Z,19.00
2022-11-15T16:59:17.820Z,19.00
2022-11-15T17:02:03.772Z,19.00
2022-11-15T17:04:49.156Z,19.00
2022-11-15T17:07:34.715Z,19.00
2022-11-15T17:10:22.000Z,18.90
2022-11-15T17:13:16.009Z,18.90
2022-11-15T17:16:20.053Z,18.90
2022-11-15T17:19:05.984Z,18.90
2022-11-15T17:21:51.465Z,18.90
2022-11-15T17:24:37.117Z,18.90
2022-11-15T17:27:23.796Z,18.90
2022-11-15T17:30:12.645Z,18.90
2022-11-15T17:32:58.219Z,18.90
2022-11-15T17:35:43.596Z,18.80
2022-11-15T17:38:30.045Z,18.80
2022-11-15T17:41:16.707Z,18.80
2022-11-15T17:44:03.716Z,18.80
2022-11-15T17:46:49.782Z,18.80
2022-11-15T17:49:39.435Z,18.80
2022-11-15T17:52:24.968Z,18.80
2022-11-15T17:55:10.864Z,18.80
2022-11-15T17:57:56.229Z,18.80
2022-11-15T18:00:41.654Z,18.80
2022-11-15T18:03:27.339Z,18.80
2022-11-15T18:06:13.347Z,18.80
2022-11-15T18:08:59.415Z,18.80
2022-11-15T18:11:50.539Z,18.80
2022-11-15T18:14:35.971Z,18.80
2022-11-15T18:17:21.834Z,18.80
2022-11-15T18:20:07.749Z,18.80
2022-11-15T18:22:54.468Z,18.80
2022-11-15T18:25:40.450Z,18.80
2022-11-15T18:28:37.385Z,18.80
2022-11-15T18:31:26.408Z,18.80
2022-11-15T18:34:12.271Z,18.80
2022-11-15T18:36:58.460Z,18.80
2022-11-15T18:39:44.226Z,18.80
2022-11-15T18:42:32.986Z,18.70
2022-11-15T18:45:23.021Z,18.60
2022-11-15T18:48:09.735Z,18.60
2022-11-15T18:51:10.743Z,18.50
2022-11-15T18:54:00.836Z,18.50
2022-11-15T18:56:47.091Z,18.50
2022-11-15T18:59:32.992Z,18.40
2022-11-15T19:02:18.576Z,18.40
2022-11-15T19:05:04.747Z,18.40
2022-11-15T19:07:50.442Z,18.40
2022-11-15T19:10:35.795Z,18.30
2022-11-15T19:13:21.278Z,18.30
2022-11-15T19:16:07.643Z,18.30
2022-11-15T19:18:58.302Z,18.30
2022-11-15T19:21:44.640Z,18.30
2022-11-15T19:24:30.636Z,18.30
2022-11-15T19:27:16.445Z,18.30
2022-11-15T19:30:02.097Z,18.20
2022-11-15T19:32:48.146Z,18.20
2022-11-15T19:35:34.203Z,18.30
2022-11-15T19:38:19.910Z,18.20
2022-11-15T19:41:07.700Z,18.20
2022-11-15T19:43:54.106Z,18.20
2022-11-15T19:46:40.725Z,18.20
2022-11-15T19:49:26.294Z,18.20
2022-11-15T19:52:11.701Z,18.20
2022-11-15T19:54:58.628Z,18.20
2022-11-15T19:57:44.797Z,18.20
2022-11-15T20:00:31.255Z,18.20
2022-11-15T20:03:17.851Z,18.20
2022-11-15T20:06:07.846Z,18.20
2022-11-15T20:08:53.684Z,18.20
2022-11-15T20:11:39.526Z,18.20
2022-11-15T20:14:25.651Z,18.20
2022-11-15T20:17:11.579Z,18.20
2022-11-15T20:19:58.527Z,18.20
2022-11-15T20:22:44.126Z,18.20
2022-11-15T20:25:30.205Z,18.20
2022-11-15T20:28:36.649Z,18.20
2022-11-15T20:31:22.235Z,18.20
2022-11-15T20:34:08.056Z,18.10
2022-11-15T20:36:53.543Z,18.10
2022-11-15T20:39:39.519Z,18.10
2022-11-15T20:42:25.066Z,18.10
2022-11-15T20:45:10.879Z,18.10
2022-11-15T20:47:57.831Z,18.10
2022-11-15T20:50:45.383Z,18.10
2022-11-15T20:53:31.754Z,18.10
2022-11-15T20:56:20.510Z,18.10
2022-11-15T20:59:06.217Z,18.10
2022-11-15T21:01:51.881Z,18.10
2022-11-15T21:04:37.143Z,18.10
2022-11-15T21:07:22.620Z,18.10
2022-11-15T21:10:28.013Z,18.10
2022-11-15T21:13:13.500Z,18.10
2022-11-15T21:15:59.094Z,18.10
2022-11-15T21:18:44.634Z,18.10
2022-11-15T21:21:30.105Z,18.00
2022-11-15T21:24:15.737Z,18.00
2022-11-15T21:27:01.647Z,18.00
2022-11-15T21:29:49.982Z,18.00
2022-11-15T21:32:35.870Z,18.00
2022-11-15T21:35:21.464Z,18.00
2022-11-15T21:38:07.216Z,18.10
2022-11-15T21:40:53.606Z,18.00
2022-11-15T21:43:39.441Z,18.00
2022-11-15T21:46:25.004Z,18.00
2022-11-15T21:49:10.519Z,18.00
2022-11-15T21:51:55.963Z,18.00
2022-11-15T21:54:44.413Z,18.00
2022-11-15T21:57:30.256Z,18.00
2022-11-15T22:00:35.434Z,18.00
2022-11-15T22:03:20.920Z,18.00
2022-11-15T22:06:06.832Z,18.00
2022-11-15T22:08:52.350Z,18.00
2022-11-15T22:11:38.017Z,18.00
2022-11-15T22:14:23.418Z,18.00
2022-11-15T22:17:08.962Z,18.00
2022-11-15T22:19:54.367Z,18.00
2022-11-15T22:22:39.945Z,17.80
2022-11-15T22:25:26.416Z,17.60
2022-11-15T22:28:12.137Z,17.50
2022-11-15T22:30:58.304Z,17.40
2022-11-15T22:33:43.789Z,17.30
2022-11-15T22:36:42.365Z,17.20
2022-11-15T22:39:32.407Z,17.10
2022-11-15T22:42:22.314Z,17.00
2022-11-15T22:45:09.843Z,16.90
2022-11-15T22:47:55.496Z,16.90
2022-11-15T22:50:41.492Z,16.80
2022-11-15T22:53:28.438Z,16.80
2022-11-15T22:56:19.065Z,16.70
2022-11-15T22:59:06.151Z,16.70
2022-11-15T23:01:51.642Z,16.60
2022-11-15T23:04:37.378Z,16.60
2022-11-15T23:07:23.029Z,16.60
2022-11-15T23:10:27.488Z,16.50
2022-11-15T23:13:16.822Z,16.50
2022-11-15T23:16:23.949Z,16.50
2022-11-15T23:19:11.594Z,16.50
2022-11-15T23:22:15.503Z,16.50
2022-11-15T23:25:00.980Z,16.40
2022-11-15T23:27:46.728Z,16.40
2022-11-15T23:30:54.706Z,16.40
2022-11-15T23:33:58.267Z,16.40
2022-11-15T23:36:44.378Z,16.30
2022-11-15T23:39:30.176Z,16.30
2022-11-15T23:42:19.963Z,16.30
2022-11-15T23:45:06.380Z,16.30
2022-11-15T23:47:55.736Z,16.30
2022-11-15T23:50:47.571Z,16.30
2022-11-15T23:53:33.317Z,16.20
2022-11-15T23:56:20.690Z,16.20
2022-11-15T23:59:06.782Z,16.10
